createdAt,value
2018-01-13T00:00:30.481Z,77.91
2018-01-13T00:01:30.269Z,77.96
2018-01-13T00:02:30.612Z,78.15
2018-01-13T00:03:31.054Z,77.98
2018-01-13T00:04:30.517Z,77.95
2018-01-13T00:05:30.786Z,77.85
2018-01-13T00:06:30.889Z,78.15
2018-01-13T00:07:30.885Z,78.18
2018-01-13T00:08:30.583Z,78.74
2018-01-13T00:09:30.838Z,78.7
2018-01-13T00:10:30.409Z,78.39
2018-01-13T00:11:30.731Z,78.48
2018-01-13T00:12:30.287Z,78.03
2018-01-13T00:13:30.572Z,78.17
2018-01-13T00:14:29.991Z,78.16
2018-01-13T00:15:31.056Z,78.02
2018-01-13T00:16:30.028Z,78
2018-01-13T00:17:30.486Z,77.9
2018-01-13T00:18:30.007Z,78.26
2018-01-13T00:20:47.637Z,77.86
2018-01-13T00:21:30.167Z,78.09
2018-01-13T00:22:30.727Z,77.73
2018-01-13T00:23:29.789Z,77.6
2018-01-13T00:24:30.109Z,77.95
2018-01-13T00:25:30.240Z,77.93
2018-01-13T00:26:29.848Z,78.18
2018-01-13T00:27:30.256Z,78.37
2018-01-13T00:28:29.821Z,77.94
2018-01-13T00:29:30.303Z,78.13
2018-01-13T00:30:29.781Z,78.14
2018-01-13T00:31:29.813Z,78.16
2018-01-13T00:32:29.889Z,78.22
2018-01-13T00:33:30.101Z,77.54
2018-01-13T00:34:30.304Z,77.62
2018-01-13T00:35:29.956Z,77.84
2018-01-13T00:36:30.517Z,77.66
2018-01-13T00:37:30.040Z,78.05
2018-01-13T00:38:30.532Z,77.65
2018-01-13T00:39:30.594Z,77.53
2018-01-13T00:40:30.495Z,77.6
2018-01-13T00:41:30.987Z,77.88
2018-01-13T00:42:30.494Z,77.79
2018-01-13T00:43:31.022Z,77.78
2018-01-13T00:44:31.038Z,77.79
2018-01-13T00:45:30.513Z,77.77
2018-01-13T00:46:30.587Z,77.76
2018-01-13T00:48:47.767Z,77.63
2018-01-13T00:49:31.179Z,77.33
2018-01-13T00:50:31.595Z,77.78
2018-01-13T00:51:30.870Z,77.98
2018-01-13T00:52:30.577Z,77.8
2018-01-13T00:53:30.492Z,78.21
2018-01-13T00:54:30.752Z,77.33
2018-01-13T00:55:31.171Z,77.06
2018-01-13T00:56:31.176Z,77.13
2018-01-13T00:57:30.501Z,76.95
2018-01-13T00:58:30.909Z,76.84
2018-01-13T00:59:30.720Z,76.45
2018-01-13T01:00:30.947Z,76.26
2018-01-13T01:01:31.311Z,75.52
2018-01-13T01:02:30.822Z,75.97
2018-01-13T01:03:31.012Z,75.43
2018-01-13T01:04:30.474Z,75.95
2018-01-13T01:05:30.509Z,75.51
2018-01-13T01:06:30.819Z,75.64
2018-01-13T01:07:30.978Z,76.07
2018-01-13T01:08:31.055Z,75.75
2018-01-13T01:09:30.488Z,75.95
2018-01-13T01:10:31.209Z,76.12
2018-01-13T01:11:30.376Z,75.79
2018-01-13T01:12:30.885Z,76.01
2018-01-13T01:13:30.224Z,76.63
2018-01-13T01:14:30.238Z,76.55
2018-01-13T01:15:30.680Z,76.82
2018-01-13T01:16:31.140Z,76.82
2018-01-13T01:17:30.536Z,76.68
2018-01-13T01:18:30.597Z,76.68
2018-01-13T01:19:30.588Z,76.66
2018-01-13T01:20:31.138Z,76.67
2018-01-13T01:21:30.728Z,76.98
2018-01-13T01:22:30.399Z,77.01
2018-01-13T01:23:30.844Z,77.51
2018-01-13T01:24:31.307Z,77.29
2018-01-13T01:25:30.960Z,77.04
2018-01-13T01:26:30.379Z,77.54
2018-01-13T01:27:30.167Z,77.25
2018-01-13T01:28:30.333Z,77.49
2018-01-13T01:29:30.780Z,77.57
2018-01-13T01:30:31.342Z,77.87
2018-01-13T01:31:30.848Z,78.01
2018-01-13T01:32:30.332Z,77.41
2018-01-13T01:33:30.394Z,77.87
2018-01-13T01:34:30.949Z,77.32
2018-01-13T01:35:30.413Z,77.59
2018-01-13T01:36:30.488Z,77.77
2018-01-13T01:37:30.774Z,77.62
2018-01-13T01:38:31.169Z,77.41
2018-01-13T01:39:30.242Z,77.54
2018-01-13T01:40:30.350Z,77.67
2018-01-13T01:41:31.282Z,77.54
2018-01-13T01:42:31.338Z,77.17
2018-01-13T01:43:30.295Z,77.15
2018-01-13T01:44:31.164Z,77
2018-01-13T01:45:30.585Z,76.97
2018-01-13T01:46:30.824Z,76.83
2018-01-13T01:47:30.245Z,76.53
2018-01-13T01:48:30.931Z,76.98
2018-01-13T01:49:31.238Z,76.73
2018-01-13T01:50:30.612Z,76.68
2018-01-13T01:51:31.439Z,76.98
2018-01-13T01:52:30.770Z,76.7
2018-01-13T01:53:31.161Z,76.2
2018-01-13T01:54:30.476Z,76.53
2018-01-13T01:55:30.864Z,76.57
2018-01-13T01:56:30.938Z,76.79
2018-01-13T01:57:30.625Z,76.6
2018-01-13T01:58:31.115Z,76.41
2018-01-13T01:59:31.238Z,76.85
2018-01-13T02:00:30.734Z,76.73
2018-01-13T02:01:31.136Z,77.04
2018-01-13T02:02:30.529Z,76.76
2018-01-13T02:03:30.763Z,77.03
2018-01-13T02:04:30.864Z,77.12
2018-01-13T02:05:30.857Z,77.27
2018-01-13T02:06:30.267Z,77.2
2018-01-13T02:07:30.508Z,77.35
2018-01-13T02:08:30.811Z,77.19
2018-01-13T02:09:31.192Z,77.29
2018-01-13T02:10:31.069Z,77.35
2018-01-13T02:11:30.362Z,77.76
2018-01-13T02:12:30.316Z,77.67
2018-01-13T02:13:30.727Z,77.21
2018-01-13T02:14:31.212Z,77.24
2018-01-13T02:15:30.670Z,76.62
2018-01-13T02:16:31.138Z,77.01
2018-01-13T02:17:30.492Z,76.39
2018-01-13T02:18:31.054Z,76.5
2018-01-13T02:19:30.490Z,76.75
2018-01-13T02:20:30.725Z,76.54
2018-01-13T02:21:31.221Z,77.02
2018-01-13T02:22:31.218Z,76.89
2018-01-13T02:23:30.475Z,76.66
2018-01-13T02:24:30.757Z,76.6
2018-01-13T02:25:30.460Z,76.35
2018-01-13T02:26:30.860Z,76.43
2018-01-13T02:27:31.112Z,76.47
2018-01-13T02:28:30.404Z,76.65
2018-01-13T02:29:30.559Z,76.48
2018-01-13T02:30:30.764Z,76.25
2018-01-13T02:31:30.552Z,76.13
2018-01-13T02:32:31.067Z,76.1
2018-01-13T02:33:30.438Z,76.27
2018-01-13T02:34:30.897Z,75.94
2018-01-13T02:35:31.027Z,76.09
2018-01-13T02:36:31.467Z,75.69
2018-01-13T02:37:30.494Z,75.79
2018-01-13T02:38:31.028Z,75.79
2018-01-13T02:39:31.279Z,75.8
2018-01-13T02:40:30.693Z,75.09
2018-01-13T02:41:31.068Z,75.26
2018-01-13T02:42:31.100Z,75.69
2018-01-13T02:43:30.252Z,75.23
2018-01-13T02:44:30.184Z,74.65
2018-01-13T02:45:30.563Z,75.07
2018-01-13T02:46:30.197Z,75.04
2018-01-13T02:47:30.682Z,75.04
2018-01-13T02:48:30.277Z,74.83
2018-01-13T02:49:30.665Z,75.08
2018-01-13T02:50:30.632Z,75.28
2018-01-13T02:51:30.626Z,75.31
2018-01-13T02:52:30.057Z,75.5
2018-01-13T02:53:30.231Z,75.74
2018-01-13T02:54:30.560Z,75.62
2018-01-13T02:55:30.052Z,75.78
2018-01-13T02:56:29.796Z,75.57
2018-01-13T02:57:30.182Z,75.43
2018-01-13T02:58:30.543Z,75.68
2018-01-13T02:59:29.876Z,75.54
2018-01-13T03:00:30.229Z,75.38
2018-01-13T03:01:30.424Z,75.24
2018-01-13T03:02:30.691Z,75.74
2018-01-13T03:03:30.734Z,76.09
2018-01-13T03:04:30.614Z,75.98
2018-01-13T03:05:30.586Z,76.13
2018-01-13T03:06:30.464Z,75.83
2018-01-13T03:07:29.958Z,76.07
2018-01-13T03:08:30.202Z,75.79
2018-01-13T03:09:29.935Z,75.88
2018-01-13T03:10:30.300Z,76.29
2018-01-13T03:11:30.771Z,76.29
2018-01-13T03:12:30.284Z,76.08
2018-01-13T03:13:29.929Z,76.21
2018-01-13T03:14:30.303Z,76.02
2018-01-13T03:15:30.591Z,75.95
2018-01-13T03:16:30.011Z,76.33
2018-01-13T03:17:30.967Z,76.46
2018-01-13T03:18:30.629Z,76.23
2018-01-13T03:20:30.031Z,76.03
2018-01-13T03:21:30.575Z,75.87
2018-01-13T03:22:30.597Z,76.41
2018-01-13T03:23:30.029Z,75.84
2018-01-13T03:24:30.071Z,76.23
2018-01-13T03:25:30.200Z,76.11
2018-01-13T03:26:30.704Z,76.21
2018-01-13T03:27:30.773Z,76.43
2018-01-13T03:28:30.098Z,76.32
2018-01-13T03:29:30.777Z,75.73
2018-01-13T03:30:30.293Z,76.07
2018-01-13T03:31:30.367Z,76.16
2018-01-13T03:32:30.819Z,75.82
2018-01-13T03:33:30.008Z,75.83
2018-01-13T03:34:30.489Z,76.04
2018-01-13T03:35:30.726Z,76.12
2018-01-13T03:36:30.639Z,76.25
2018-01-13T03:37:30.025Z,76.31
2018-01-13T03:38:29.927Z,76.29
2018-01-13T03:39:30.037Z,76.16
2018-01-13T03:40:30.543Z,76.08
2018-01-13T03:41:30.734Z,76.12
2018-01-13T03:42:29.955Z,76.3
2018-01-13T03:43:30.292Z,76.17
2018-01-13T03:44:30.501Z,76.27
2018-01-13T03:45:30.902Z,76.51
2018-01-13T03:46:31.280Z,76.27
2018-01-13T03:47:30.502Z,76.01
2018-01-13T03:48:30.804Z,76.07
2018-01-13T03:49:30.355Z,76.21
2018-01-13T03:50:31.018Z,76.46
2018-01-13T03:51:31.282Z,76.49
2018-01-13T03:52:30.854Z,76.41
2018-01-13T03:53:30.356Z,76.29
2018-01-13T03:54:30.522Z,76.44
2018-01-13T03:55:30.992Z,76.6
2018-01-13T03:56:31.251Z,76.84
2018-01-13T03:57:30.480Z,76.62
2018-01-13T03:58:30.732Z,76.83
2018-01-13T03:59:30.954Z,76.69
2018-01-13T04:00:30.511Z,76.88
2018-01-13T04:01:30.855Z,76.79
2018-01-13T04:02:31.327Z,76.88
2018-01-13T04:03:30.754Z,77.15
2018-01-13T04:04:31.026Z,76.83
2018-01-13T04:05:31.343Z,76.82
2018-01-13T04:06:30.709Z,76.98
2018-01-13T04:07:31.279Z,77.28
2018-01-13T04:08:30.436Z,77.4
2018-01-13T04:09:30.909Z,77.15
2018-01-13T04:10:31.260Z,77.5
2018-01-13T04:11:30.989Z,77.49
2018-01-13T04:12:30.407Z,77.59
2018-01-13T04:13:31.354Z,77.25
2018-01-13T04:14:30.862Z,77.15
2018-01-13T04:15:30.184Z,77.25
2018-01-13T04:16:30.640Z,77.4
2018-01-13T04:17:30.118Z,77.21
2018-01-13T04:18:30.564Z,77.32
2018-01-13T04:19:30.619Z,77.65
2018-01-13T04:20:30.062Z,77.49
2018-01-13T04:21:30.324Z,77.36
2018-01-13T04:22:30.489Z,77.12
2018-01-13T04:23:30.842Z,77.45
2018-01-13T04:24:30.879Z,77.29
2018-01-13T04:25:30.910Z,77.66
2018-01-13T04:26:30.368Z,77.41
2018-01-13T04:27:30.728Z,77.32
2018-01-13T04:28:30.619Z,77.32
2018-01-13T04:29:30.629Z,77.61
2018-01-13T04:30:31.002Z,77.69
2018-01-13T04:31:30.386Z,77.74
2018-01-13T04:32:30.633Z,77.88
2018-01-13T04:33:30.104Z,77.58
2018-01-13T04:34:30.493Z,78.05
2018-01-13T04:35:30.719Z,77.74
2018-01-13T04:36:30.827Z,77.92
2018-01-13T04:37:30.108Z,77.73
2018-01-13T04:38:30.462Z,77.96
2018-01-13T04:39:30.761Z,78.07
2018-01-13T04:40:30.213Z,77.7
2018-01-13T04:41:30.496Z,78.24
2018-01-13T04:42:30.791Z,78.14
2018-01-13T04:43:30.507Z,77.93
2018-01-13T04:44:30.622Z,77.76
2018-01-13T04:45:29.744Z,77.63
2018-01-13T04:46:30.039Z,77.66
2018-01-13T04:47:30.254Z,77.92
2018-01-13T04:48:30.562Z,77.82
2018-01-13T04:49:29.925Z,77.8
2018-01-13T04:50:30.039Z,77.59
2018-01-13T04:51:30.258Z,77.78
2018-01-13T04:52:29.979Z,77.46
2018-01-13T04:53:30.092Z,77.46
2018-01-13T04:54:29.808Z,77.64
2018-01-13T04:55:30.157Z,77.47
2018-01-13T04:56:30.229Z,77.58
2018-01-13T04:57:30.566Z,77.8
2018-01-13T04:58:29.717Z,77.74
2018-01-13T05:01:30.484Z,77.54
2018-01-13T05:02:30.070Z,77.35
2018-01-13T05:03:30.280Z,77.39
2018-01-13T05:04:29.869Z,77.31
2018-01-13T05:05:30.271Z,77.54
2018-01-13T05:06:29.752Z,77.62
2018-01-13T05:07:30.097Z,77.72
2018-01-13T05:08:30.012Z,77.26
2018-01-13T05:09:30.262Z,77.46
2018-01-13T05:10:30.055Z,77.49
2018-01-13T05:11:30.333Z,77.49
2018-01-13T05:12:29.671Z,77.37
2018-01-13T05:13:29.819Z,77.77
2018-01-13T05:14:30.171Z,77.63
2018-01-13T05:15:29.826Z,77.52
2018-01-13T05:16:30.409Z,77.57
2018-01-13T05:17:30.137Z,77.7
2018-01-13T05:18:30.747Z,77.64
2018-01-13T05:19:30.062Z,77.98
2018-01-13T05:20:30.276Z,78.03
2018-01-13T05:21:30.664Z,78.15
2018-01-13T05:22:29.879Z,78.02
2018-01-13T05:23:30.193Z,78.53
2018-01-13T05:24:30.492Z,78.71
2018-01-13T05:25:30.364Z,78.79
2018-01-13T05:26:30.494Z,78.77
2018-01-13T05:27:29.786Z,79.02
2018-01-13T05:28:30.086Z,78.74
2018-01-13T05:29:30.353Z,78.63
2018-01-13T05:30:30.599Z,78.63
2018-01-13T05:31:30.061Z,78.98
2018-01-13T05:32:30.284Z,79.13
2018-01-13T05:33:30.697Z,79.04
2018-01-13T05:34:31.295Z,79.17
2018-01-13T05:35:30.614Z,79.08
2018-01-13T05:36:30.109Z,78.91
2018-01-13T05:37:29.805Z,79.21
2018-01-13T05:38:30.239Z,78.68
2018-01-13T05:39:30.701Z,78.6
2018-01-13T05:40:30.109Z,78.88
2018-01-13T05:41:30.550Z,79
2018-01-13T05:42:30.068Z,79.09
2018-01-13T05:43:30.085Z,79.15
2018-01-13T05:44:30.590Z,78.79
2018-01-13T05:45:29.997Z,78.72
2018-01-13T05:46:45.404Z,78.77
2018-01-13T05:47:30.772Z,78.85
2018-01-13T05:48:30.186Z,78.98
2018-01-13T05:49:30.453Z,78.62
2018-01-13T05:50:30.143Z,79.02
2018-01-13T05:51:30.641Z,78.83
2018-01-13T05:52:31.177Z,78.89
2018-01-13T05:53:30.182Z,78.95
2018-01-13T05:54:30.840Z,78.86
2018-01-13T05:55:30.741Z,78.56
2018-01-13T05:56:30.101Z,78.42
2018-01-13T05:57:30.114Z,78.42
2018-01-13T05:58:30.280Z,78.25
2018-01-13T05:59:30.595Z,78.25
2018-01-13T06:00:30.049Z,78.53
2018-01-13T06:01:30.726Z,78.25
2018-01-13T06:02:30.222Z,78.21
2018-01-13T06:03:30.667Z,78.51
2018-01-13T06:04:30.059Z,78.5
2018-01-13T06:05:30.180Z,78.23
2018-01-13T06:06:30.750Z,78.45
2018-01-13T06:07:30.738Z,78.62
2018-01-13T06:08:30.429Z,78.53
2018-01-13T06:09:30.408Z,78.12
2018-01-13T06:10:30.843Z,78.47
2018-01-13T06:11:30.294Z,78.23
2018-01-13T06:12:30.730Z,78.36
2018-01-13T06:13:30.259Z,78.5
2018-01-13T06:14:30.467Z,78.38
2018-01-13T06:15:30.978Z,78.45
2018-01-13T06:16:30.303Z,78.21
2018-01-13T06:17:30.590Z,78.31
2018-01-13T06:18:30.422Z,78.5
2018-01-13T06:19:30.645Z,78.35
2018-01-13T06:20:30.680Z,78.5
2018-01-13T06:21:30.112Z,78.33
2018-01-13T06:22:30.617Z,78.35
2018-01-13T06:23:30.893Z,78.18
2018-01-13T06:24:30.193Z,78.48
2018-01-13T06:26:56.380Z,78.7
2018-01-13T06:27:30.723Z,78.52
2018-01-13T06:28:30.263Z,78.62
2018-01-13T06:29:30.855Z,78.59
2018-01-13T06:30:31.506Z,78.83
2018-01-13T06:31:32.251Z,78.54
2018-01-13T06:32:32.078Z,78.8
2018-01-13T06:33:31.384Z,78.7
2018-01-13T06:34:31.697Z,78.61
2018-01-13T06:35:31.194Z,78.35
2018-01-13T06:36:30.728Z,78.26
2018-01-13T06:37:30.780Z,78.16
2018-01-13T06:38:31.213Z,78.27
2018-01-13T06:39:31.626Z,77.96
2018-01-13T06:40:31.496Z,78.27
2018-01-13T06:41:31.115Z,78.21
2018-01-13T06:42:31.790Z,78.1
2018-01-13T06:43:31.437Z,78.39
2018-01-13T06:44:32.248Z,78.35
2018-01-13T06:45:32.063Z,78.02
2018-01-13T06:46:31.548Z,77.93
2018-01-13T06:47:30.906Z,78.16
2018-01-13T06:48:31.551Z,78.49
2018-01-13T06:49:31.160Z,78.11
2018-01-13T06:50:31.678Z,77.99
2018-01-13T06:51:56.596Z,78.32
2018-01-13T06:52:30.787Z,78.19
2018-01-13T06:53:31.310Z,78.08
2018-01-13T06:54:31.441Z,78.31
2018-01-13T06:55:29.705Z,77.98
2018-01-13T06:56:31.396Z,78.17
2018-01-13T06:57:29.619Z,78.2
2018-01-13T06:58:31.094Z,78.44
2018-01-13T06:59:31.704Z,78.35
2018-01-13T07:00:30.970Z,78.24
2018-01-13T07:01:31.388Z,78.37
2018-01-13T07:02:31.051Z,78.25
2018-01-13T07:03:31.036Z,78.24
2018-01-13T07:04:31.557Z,78.38
2018-01-13T07:05:31.033Z,78.52
2018-01-13T07:06:31.443Z,78.69
2018-01-13T07:07:29.686Z,78.55
2018-01-13T07:08:31.345Z,78.71
2018-01-13T07:09:29.747Z,78.64
2018-01-13T07:10:31.686Z,78.52
2018-01-13T07:11:30.998Z,78.27
2018-01-13T07:12:31.216Z,78.66
2018-01-13T07:13:29.800Z,78.5
2018-01-13T07:14:31.384Z,78.61
2018-01-13T07:15:29.730Z,78.46
2018-01-13T07:16:31.194Z,78.36
2018-01-13T07:17:29.665Z,78.5
2018-01-13T07:18:31.344Z,78.35
2018-01-13T07:19:31.625Z,78.35
2018-01-13T07:20:31.157Z,78.42
2018-01-13T07:21:30.577Z,78.36
2018-01-13T07:22:30.048Z,78.2
2018-01-13T07:23:30.307Z,78.61
2018-01-13T07:24:29.700Z,78.6
2018-01-13T07:25:30.052Z,78.54
2018-01-13T07:26:30.497Z,78.73
2018-01-13T07:27:29.702Z,78.41
2018-01-13T07:28:29.812Z,78.71
2018-01-13T07:29:30.027Z,78.67
2018-01-13T07:30:30.365Z,78.8
2018-01-13T07:31:30.556Z,78.62
2018-01-13T07:32:29.958Z,78.83
2018-01-13T07:33:30.298Z,78.87
2018-01-13T07:34:30.509Z,78.82
2018-01-13T07:35:30.053Z,78.7
2018-01-13T07:36:30.342Z,78.91
2018-01-13T07:37:29.862Z,79.14
2018-01-13T07:38:30.363Z,78.77
2018-01-13T07:39:30.638Z,78.83
2018-01-13T07:40:29.975Z,79.03
2018-01-13T07:42:29.693Z,78.88
2018-01-13T07:43:30.055Z,79.04
2018-01-13T07:44:30.470Z,78.86
2018-01-13T07:45:29.929Z,79.14
2018-01-13T07:47:29.838Z,78.89
2018-01-13T07:48:30.405Z,79.06
2018-01-13T07:49:30.752Z,79.02
2018-01-13T07:50:30.059Z,79.24
2018-01-13T07:51:30.269Z,79.32
2018-01-13T07:52:30.699Z,79.39
2018-01-13T07:53:29.907Z,79.11
2018-01-13T07:54:30.098Z,79.09
2018-01-13T07:55:30.636Z,79.25
2018-01-13T07:56:30.131Z,79.17
2018-01-13T07:59:52.742Z,79.02
2018-01-13T08:00:29.973Z,79.41
2018-01-13T08:01:30.534Z,79
2018-01-13T08:02:29.988Z,79.02
2018-01-13T08:03:30.281Z,78.98
2018-01-13T08:04:30.667Z,79.22
2018-01-13T08:05:30.211Z,79.04
2018-01-13T08:06:30.749Z,78.8
2018-01-13T08:07:30.116Z,78.86
2018-01-13T08:08:30.424Z,78.87
2018-01-13T08:09:30.751Z,79.03
2018-01-13T08:10:30.023Z,79.08
2018-01-13T08:11:30.159Z,78.68
2018-01-13T08:12:30.556Z,78.64
2018-01-13T08:13:30.754Z,78.91
2018-01-13T08:14:30.145Z,78.67
2018-01-13T08:15:30.481Z,78.98
2018-01-13T08:16:30.749Z,78.57
2018-01-13T08:17:30.116Z,78.56
2018-01-13T08:18:30.862Z,78.51
2018-01-13T08:19:30.193Z,78.68
2018-01-13T08:20:30.598Z,78.94
2018-01-13T08:21:31.086Z,78.62
2018-01-13T08:22:30.355Z,78.9
2018-01-13T08:23:30.848Z,78.86
2018-01-13T08:24:30.176Z,78.62
2018-01-13T08:25:30.619Z,78.54
2018-01-13T08:26:30.963Z,78.77
2018-01-13T08:27:30.528Z,78.24
2018-01-13T08:28:30.916Z,78.5
2018-01-13T08:29:30.427Z,78.84
2018-01-13T08:30:30.664Z,78.28
2018-01-13T08:31:31.020Z,78.46
2018-01-13T08:32:30.384Z,78.08
2018-01-13T08:33:30.777Z,78.28
2018-01-13T08:34:31.179Z,78.42
2018-01-13T08:35:30.591Z,78.21
2018-01-13T08:36:30.725Z,78.21
2018-01-13T08:37:30.993Z,78.42
2018-01-13T08:38:30.841Z,78.36
2018-01-13T08:39:30.382Z,78.46
2018-01-13T08:40:31.082Z,78.41
2018-01-13T08:41:30.252Z,77.97
2018-01-13T08:42:30.516Z,77.88
2018-01-13T08:43:30.996Z,78.18
2018-01-13T08:44:30.442Z,78.16
2018-01-13T08:45:30.986Z,77.99
2018-01-13T08:46:30.398Z,77.83
2018-01-13T08:47:30.718Z,78.11
2018-01-13T08:48:30.214Z,78.54
2018-01-13T08:49:30.449Z,77.49
2018-01-13T08:50:30.644Z,77.83
2018-01-13T08:51:30.582Z,77.6
2018-01-13T08:52:29.962Z,77.55
2018-01-13T08:53:30.332Z,77.43
2018-01-13T08:54:29.801Z,77.41
2018-01-13T08:55:30.269Z,77.4
2018-01-13T08:56:30.652Z,77.5
2018-01-13T08:57:30.032Z,77.47
2018-01-13T08:58:30.422Z,77.3
2018-01-13T08:59:30.052Z,77.22
2018-01-13T09:00:30.601Z,77.01
2018-01-13T09:01:30.033Z,76.85
2018-01-13T09:02:30.500Z,77.11
2018-01-13T09:03:30.762Z,77.1
2018-01-13T09:04:30.633Z,76.92
2018-01-13T09:05:30.297Z,76.8
2018-01-13T09:06:29.792Z,76.68
2018-01-13T09:07:30.407Z,76.43
2018-01-13T09:08:30.010Z,76.9
2018-01-13T09:09:30.642Z,76.45
2018-01-13T09:10:30.440Z,76.45
2018-01-13T09:11:29.977Z,76.22
2018-01-13T09:12:30.570Z,76.76
2018-01-13T09:13:30.265Z,76.71
2018-01-13T09:14:30.401Z,76.6
2018-01-13T09:15:29.838Z,76.78
2018-01-13T09:16:29.831Z,76.78
2018-01-13T09:17:30.489Z,76.41
2018-01-13T09:18:30.290Z,75.93
2018-01-13T09:19:30.309Z,76.19
2018-01-13T09:20:30.904Z,76.7
2018-01-13T09:21:30.266Z,76.1
2018-01-13T09:22:30.824Z,76.42
2018-01-13T09:23:30.484Z,76.5
2018-01-13T09:24:30.140Z,76.36
2018-01-13T09:25:30.735Z,76.58
2018-01-13T09:26:30.144Z,76.52
2018-01-13T09:27:30.912Z,76.44
2018-01-13T09:28:31.008Z,76.7
2018-01-13T09:29:30.320Z,75.8
2018-01-13T09:30:31.029Z,76.13
2018-01-13T09:31:30.893Z,75.98
2018-01-13T09:32:30.864Z,75.86
2018-01-13T09:33:30.484Z,75.42
2018-01-13T09:34:31.008Z,75.49
2018-01-13T09:35:30.738Z,75.42
2018-01-13T09:36:30.384Z,75.85
2018-01-13T09:37:30.943Z,75.68
2018-01-13T09:38:30.498Z,75.58
2018-01-13T09:39:30.102Z,75.14
2018-01-13T09:40:30.716Z,75.31
2018-01-13T09:41:30.297Z,75.54
2018-01-13T09:42:30.785Z,74.94
2018-01-13T09:43:30.164Z,74.74
2018-01-13T09:44:30.515Z,74.85
2018-01-13T09:45:30.969Z,74.54
2018-01-13T09:46:30.556Z,74.87
2018-01-13T09:47:30.178Z,74.68
2018-01-13T09:48:30.983Z,74.23
2018-01-13T09:49:30.405Z,74.66
2018-01-13T09:50:30.013Z,74.92
2018-01-13T09:51:30.541Z,74.74
2018-01-13T09:52:30.499Z,74.56
2018-01-13T09:53:30.848Z,74.65
2018-01-13T09:54:30.482Z,74.76
2018-01-13T09:55:30.762Z,74.5
2018-01-13T09:56:30.232Z,74.56
2018-01-13T09:57:33.114Z,74.28
2018-01-13T09:58:30.874Z,74.74
2018-01-13T09:59:30.161Z,74.42
2018-01-13T10:00:30.455Z,73.83
2018-01-13T10:01:30.744Z,73.91
2018-01-13T10:03:30.836Z,73.52
2018-01-13T10:04:30.481Z,73.85
2018-01-13T10:05:30.071Z,73.77
2018-01-13T10:06:30.437Z,73.97
2018-01-13T10:07:30.651Z,73.99
2018-01-13T10:08:30.402Z,73.68
2018-01-13T10:09:30.874Z,73.98
2018-01-13T10:10:30.310Z,74.13
2018-01-13T10:11:30.659Z,74.25
2018-01-13T10:12:29.970Z,73.66
2018-01-13T10:13:30.272Z,74.04
2018-01-13T10:14:30.573Z,74.4
2018-01-13T10:15:29.920Z,73.7
2018-01-13T10:16:30.222Z,74.27
2018-01-13T10:17:30.614Z,74.34
2018-01-13T10:18:30.164Z,74.27
2018-01-13T10:19:30.840Z,73.95
2018-01-13T10:20:30.145Z,74.23
2018-01-13T10:21:30.562Z,74.21
2018-01-13T10:22:30.694Z,74.31
2018-01-13T10:23:29.973Z,73.92
2018-01-13T10:24:30.263Z,73.69
2018-01-13T10:25:30.253Z,73.16
2018-01-13T10:26:30.712Z,73.46
2018-01-13T10:27:30.093Z,73.42
2018-01-13T10:28:30.303Z,73.47
2018-01-13T10:29:30.543Z,73.93
2018-01-13T10:30:30.456Z,73.14
2018-01-13T10:31:34.414Z,72.43
2018-01-13T10:32:30.357Z,72.67
2018-01-13T10:33:30.435Z,72.74
2018-01-13T10:34:30.155Z,72.73
2018-01-13T10:35:32.125Z,73.01
2018-01-13T10:36:30.648Z,73.78
2018-01-13T10:37:29.974Z,73.76
2018-01-13T10:38:30.175Z,73.31
2018-01-13T10:39:30.961Z,73.11
2018-01-13T10:40:30.503Z,73.08
2018-01-13T10:41:38.651Z,73.28
2018-01-13T10:42:29.843Z,73.26
2018-01-13T10:43:30.070Z,73.85
2018-01-13T10:44:30.114Z,73.42
2018-01-13T10:45:30.348Z,73.26
2018-01-13T10:46:30.455Z,73.31
2018-01-13T10:47:29.745Z,72.93
2018-01-13T10:48:29.982Z,73.15
2018-01-13T10:49:30.374Z,73.14
2018-01-13T10:50:29.938Z,72.83
2018-01-13T10:51:30.428Z,73.46
2018-01-13T10:52:30.757Z,73
2018-01-13T10:53:30.201Z,73.4
2018-01-13T10:54:30.675Z,73.22
2018-01-13T10:55:30.882Z,73.48
2018-01-13T10:56:30.194Z,72.72
2018-01-13T10:57:30.448Z,73.02
2018-01-13T10:58:30.845Z,73.26
2018-01-13T10:59:30.204Z,72.68
2018-01-13T11:00:30.430Z,73.13
2018-01-13T11:01:30.755Z,73.41
2018-01-13T11:04:30.688Z,73.15
2018-01-13T11:05:30.105Z,73.47
2018-01-13T11:06:30.732Z,73.3
2018-01-13T11:07:30.216Z,72.81
2018-01-13T11:08:30.653Z,72.7
2018-01-13T11:09:30.130Z,73.44
2018-01-13T11:10:30.320Z,73.44
2018-01-13T11:11:30.622Z,72.55
2018-01-13T11:12:29.993Z,73.24
2018-01-13T11:13:30.512Z,73.42
2018-01-13T11:14:30.052Z,74.72
2018-01-13T11:15:30.445Z,74
2018-01-13T11:16:30.766Z,72.97
2018-01-13T11:17:29.988Z,72.68
2018-01-13T11:18:30.267Z,72.81
2018-01-13T11:19:30.419Z,73.76
2018-01-13T11:20:30.842Z,72.43
2018-01-13T11:21:29.950Z,73.02
2018-01-13T11:22:30.275Z,72.6
2018-01-13T11:23:30.845Z,73.07
2018-01-13T11:24:30.535Z,72.98
2018-01-13T11:25:29.778Z,72.83
2018-01-13T11:26:30.311Z,73.14
2018-01-13T11:27:30.624Z,73.12
2018-01-13T11:28:30.033Z,73.27
2018-01-13T11:29:30.694Z,73.28
2018-01-13T11:30:30.370Z,73.05
2018-01-13T11:31:30.784Z,73.18
2018-01-13T11:32:30.212Z,73.33
2018-01-13T11:33:30.616Z,73.43
2018-01-13T11:34:30.115Z,73.14
2018-01-13T11:35:30.734Z,73.46
2018-01-13T11:36:29.985Z,73.49
2018-01-13T11:37:30.321Z,73.11
2018-01-13T11:38:30.673Z,72.98
2018-01-13T11:39:30.115Z,72.95
2018-01-13T11:40:30.559Z,72.9
2018-01-13T11:41:30.142Z,72.93
2018-01-13T11:42:30.663Z,73.2
2018-01-13T11:43:30.341Z,73.64
2018-01-13T11:44:30.038Z,73.5
2018-01-13T11:45:30.472Z,73.31
2018-01-13T11:46:30.500Z,73.27
2018-01-13T11:47:30.302Z,73.17
2018-01-13T11:48:30.527Z,73.13
2018-01-13T11:49:30.893Z,72.96
2018-01-13T11:50:30.346Z,73.32
2018-01-13T11:51:30.829Z,73.22
2018-01-13T11:52:30.103Z,72.55
2018-01-13T11:53:30.627Z,73.06
2018-01-13T11:54:30.901Z,73.72
2018-01-13T11:55:30.352Z,73.55
2018-01-13T11:56:30.769Z,73.53
2018-01-13T11:57:30.418Z,73.1
2018-01-13T11:58:30.912Z,73.33
2018-01-13T11:59:30.757Z,73.59
2018-01-13T12:00:30.678Z,73.1
2018-01-13T12:01:30.254Z,73.24
2018-01-13T12:02:30.944Z,73.45
2018-01-13T12:03:30.555Z,73.56
2018-01-13T12:04:30.343Z,73.45
2018-01-13T12:05:30.901Z,73.04
2018-01-13T12:06:30.386Z,73.33
2018-01-13T12:07:30.749Z,73.33
2018-01-13T12:08:30.425Z,73.17
2018-01-13T12:09:29.960Z,73.17
2018-01-13T12:10:30.343Z,72.92
2018-01-13T12:11:30.596Z,73.2
2018-01-13T12:12:30.470Z,73.37
2018-01-13T12:13:29.902Z,73.43
2018-01-13T12:14:30.126Z,73.2
2018-01-13T12:15:30.218Z,72.92
2018-01-13T12:16:30.568Z,72.96
2018-01-13T12:17:29.842Z,73.4
2018-01-13T12:18:30.038Z,73.4
2018-01-13T12:19:30.575Z,73.48
2018-01-13T12:20:29.929Z,72.88
2018-01-13T12:21:30.505Z,73.28
2018-01-13T12:22:29.986Z,73.24
2018-01-13T12:23:30.971Z,73.57
2018-01-13T12:24:30.320Z,73.1
2018-01-13T12:25:30.546Z,73.52
2018-01-13T12:26:29.997Z,73.3
2018-01-13T12:27:30.351Z,73.71
2018-01-13T12:28:30.662Z,73.01
2018-01-13T12:29:30.156Z,72.98
2018-01-13T12:30:30.561Z,73.23
2018-01-13T12:31:30.145Z,72.94
2018-01-13T12:32:30.522Z,72.84
2018-01-13T12:33:29.938Z,72.62
2018-01-13T12:34:30.194Z,72.82
2018-01-13T12:35:30.515Z,73.46
2018-01-13T12:36:31.007Z,73.17
2018-01-13T12:37:30.542Z,73.48
2018-01-13T12:38:30.894Z,73.46
2018-01-13T12:39:30.417Z,73.23
2018-01-13T12:40:30.030Z,73.31
2018-01-13T12:41:30.436Z,73.38
2018-01-13T12:42:30.741Z,72.95
2018-01-13T12:43:30.359Z,73
2018-01-13T12:44:30.918Z,73.25
2018-01-13T12:45:30.497Z,73.24
2018-01-13T12:46:30.732Z,73.42
2018-01-13T12:47:30.072Z,73.24
2018-01-13T12:48:30.349Z,72.85
2018-01-13T12:49:30.663Z,73.5
2018-01-13T12:50:30.490Z,73.49
2018-01-13T12:51:30.009Z,73.08
2018-01-13T12:52:30.786Z,73.48
2018-01-13T12:53:30.078Z,73.09
2018-01-13T12:54:30.309Z,73.15
2018-01-13T12:55:30.721Z,72.72
2018-01-13T12:56:30.160Z,73.27
2018-01-13T12:57:30.530Z,72.99
2018-01-13T12:58:29.955Z,73.11
2018-01-13T12:59:30.776Z,73.02
2018-01-13T13:00:30.213Z,73.2
2018-01-13T13:01:29.912Z,73.23
2018-01-13T13:02:30.276Z,73.53
2018-01-13T13:03:29.819Z,73.34
2018-01-13T13:04:30.384Z,72.89
2018-01-13T13:05:29.905Z,73.47
2018-01-13T13:06:30.578Z,73.45
2018-01-13T13:07:29.992Z,73.13
2018-01-13T13:08:30.583Z,73.08